コロンボ の空港の天気 - METARとTAF

バンダラナイケ国際空港 ( VCBI / CMB ) - スリランカ コロンボ
飛行場実況気象(Metar)
観測時間04/26 15:40 IST (04/26 10:10 UTC)
風向・風速西南西 4m/s
視程10km以上
天気現象
全天の4割程度の雲 雲底高度 550m
少しの雲 雲底高度 610m
気温31℃
湿度75%
気圧1005hPa
METARVCBI 261010Z 25007KT 220V310 9999 SCT018 FEW020CB 31/26 Q1005 NOSIG RMK NE/E/SE
過去の天気等 Google飛行場航空写真 Wunderground天気予報

過去48時間のMETAR

飛行場予報(TAF)
発表時間: 4/26 09:10 IST (4/26 03:40 UTC)
予報対象時間: 26日11時 IST ~ 27日17時 IST
風向・風速西南西 5m/s
視程10km以上
少しの雲 雲底高度 550m
26日15時 IST ~ 26日22時 IST に 確率 30% で一時的に
視程6,000m
26日20時 IST ~ 26日22時 IST に徐々に
風向・風速南南東 3m/s
TAF VCBI 260340Z 2606/2712 24010KT 9999 FEW018 TX31/2607Z TN25/2700Z
PROB30 TEMPO 2610/2617 6000 -TSRA/SHRA SCT016 FEW018CB
BECMG 2615/2617 16006KT